GLO1786 SBBR-SBPS
Flight info
| Callsign | GLO1786 |
|---|---|
| Flight time | 2h 7m |
| Altitude | 37000 |
| Route | SAVPU DCT EVPIV DCT IVPEG |
| Aircraft | B738/M-SDE2E3FGHIRWXY/LB1 |
Departure
| Time | 2026-05-05 18:39 |
|---|---|
| Airport | Presidente Juscelino Kubitschek International Airport (SBBR) |
Arrival
| Time | 2026-05-05 20:46 |
|---|---|
| Airport | Porto Seguro International Airport (SBPS) |
| Time | Latitude | Longitude | Altitude | Speed | Heading |
|---|---|---|---|---|---|
| 2026-05-05 18:12 | -15.87025 | -47.91997 | 3468 ft | 0 kts | 263° |
| 2026-05-05 18:23 | -15.87024 | -47.91983 | 3469 ft | 4 kts | 264° |
| 2026-05-05 18:23 | -15.87020 | -47.91955 | 3469 ft | 4 kts | 255° |
| 2026-05-05 18:23 | -15.87010 | -47.91933 | 3467 ft | 4 kts | 200° |
| 2026-05-05 18:23 | -15.86988 | -47.91932 | 3468 ft | 4 kts | 176° |
| 2026-05-05 18:24 | -15.86968 | -47.91934 | 3468 ft | 0 kts | 176° |
| 2026-05-05 18:28 | -15.86975 | -47.91933 | 3469 ft | 4 kts | 176° |
| 2026-05-05 18:28 | -15.87034 | -47.91929 | 3469 ft | 12 kts | 173° |
| 2026-05-05 18:28 | -15.87070 | -47.91862 | 3469 ft | 12 kts | 88° |
| 2026-05-05 18:29 | -15.87067 | -47.91779 | 3469 ft | 12 kts | 88° |
| 2026-05-05 18:29 | -15.87083 | -47.91701 | 3469 ft | 11 kts | 131° |
| 2026-05-05 18:29 | -15.87154 | -47.91679 | 3469 ft | 11 kts | 176° |
| 2026-05-05 18:29 | -15.87228 | -47.91674 | 3469 ft | 11 kts | 176° |
| 2026-05-05 18:30 | -15.87301 | -47.91669 | 3469 ft | 10 kts | 175° |
| 2026-05-05 18:30 | -15.87371 | -47.91663 | 3469 ft | 10 kts | 176° |
| 2026-05-05 18:30 | -15.87440 | -47.91659 | 3469 ft | 10 kts | 176° |
| 2026-05-05 18:30 | -15.87506 | -47.91655 | 3469 ft | 9 kts | 176° |
| 2026-05-05 18:31 | -15.87574 | -47.91650 | 3467 ft | 11 kts | 175° |
| 2026-05-05 18:31 | -15.87653 | -47.91644 | 3469 ft | 12 kts | 176° |
| 2026-05-05 18:31 | -15.87731 | -47.91665 | 3469 ft | 12 kts | 233° |
| 2026-05-05 18:31 | -15.87743 | -47.91753 | 3469 ft | 12 kts | 266° |
| 2026-05-05 18:32 | -15.87749 | -47.91845 | 3470 ft | 15 kts | 266° |
| 2026-05-05 18:32 | -15.87757 | -47.91960 | 3470 ft | 16 kts | 266° |
| 2026-05-05 18:32 | -15.87765 | -47.92073 | 3470 ft | 16 kts | 265° |
| 2026-05-05 18:32 | -15.87774 | -47.92183 | 3470 ft | 15 kts | 266° |
| 2026-05-05 18:33 | -15.87780 | -47.92288 | 3470 ft | 14 kts | 266° |
| 2026-05-05 18:33 | -15.87785 | -47.92389 | 3470 ft | 14 kts | 266° |
| 2026-05-05 18:33 | -15.87791 | -47.92484 | 3470 ft | 13 kts | 266° |
| 2026-05-05 18:33 | -15.87798 | -47.92577 | 3470 ft | 13 kts | 265° |
| 2026-05-05 18:34 | -15.87805 | -47.92667 | 3469 ft | 13 kts | 265° |
| 2026-05-05 18:34 | -15.87811 | -47.92766 | 3471 ft | 15 kts | 268° |
| 2026-05-05 18:34 | -15.87817 | -47.92890 | 3471 ft | 19 kts | 267° |
| 2026-05-05 18:34 | -15.87826 | -47.93036 | 3470 ft | 21 kts | 265° |
| 2026-05-05 18:35 | -15.87837 | -47.93188 | 3471 ft | 21 kts | 265° |
| 2026-05-05 18:35 | -15.87848 | -47.93335 | 3471 ft | 20 kts | 266° |
| 2026-05-05 18:35 | -15.87856 | -47.93477 | 3471 ft | 19 kts | 266° |
| 2026-05-05 18:35 | -15.87865 | -47.93613 | 3471 ft | 19 kts | 265° |
| 2026-05-05 18:36 | -15.87876 | -47.93747 | 3472 ft | 18 kts | 265° |
| 2026-05-05 18:36 | -15.87882 | -47.93875 | 3472 ft | 18 kts | 270° |
| 2026-05-05 18:36 | -15.87915 | -47.93988 | 3473 ft | 17 kts | 212° |
| 2026-05-05 18:36 | -15.87951 | -47.93996 | 3475 ft | 0 kts | 181° |
| 2026-05-05 18:37 | -15.87952 | -47.93996 | 3476 ft | 1 kts | 181° |
| 2026-05-05 18:37 | -15.87968 | -47.93996 | 3475 ft | 5 kts | 180° |
| 2026-05-05 18:37 | -15.88041 | -47.93980 | 3483 ft | 9 kts | 144° |
| 2026-05-05 18:38 | -15.88059 | -47.93923 | 3481 ft | 9 kts | 91° |
| 2026-05-05 18:38 | -15.88058 | -47.93849 | 3481 ft | 18 kts | 87° |
| 2026-05-05 18:38 | -15.88044 | -47.93651 | 3479 ft | 65 kts | 86° |
| 2026-05-05 18:38 | -15.87998 | -47.92941 | 3475 ft | 129 kts | 86° |
| 2026-05-05 18:39 | -15.87947 | -47.91813 | 3513 ft | 178 kts | 88° |
| 2026-05-05 18:39 | -15.87872 | -47.90489 | 4186 ft | 181 kts | 88° |
| 2026-05-05 18:39 | -15.87783 | -47.89209 | 5036 ft | 175 kts | 88° |
| 2026-05-05 18:39 | -15.87691 | -47.87934 | 5502 ft | 177 kts | 88° |
| 2026-05-05 18:40 | -15.87600 | -47.86656 | 6009 ft | 175 kts | 87° |
| 2026-05-05 18:40 | -15.87516 | -47.85414 | 6497 ft | 175 kts | 87° |
| 2026-05-05 18:40 | -15.87428 | -47.84083 | 6827 ft | 198 kts | 87° |
| 2026-05-05 18:40 | -15.87330 | -47.82555 | 7021 ft | 222 kts | 87° |
| 2026-05-05 18:41 | -15.87222 | -47.80882 | 7224 ft | 247 kts | 87° |
| 2026-05-05 18:41 | -15.87097 | -47.78993 | 7483 ft | 271 kts | 86° |
| 2026-05-05 18:41 | -15.86968 | -47.77029 | 8224 ft | 277 kts | 87° |
| 2026-05-05 18:41 | -15.86838 | -47.75003 | 8894 ft | 282 kts | 86° |
| 2026-05-05 18:42 | -15.86705 | -47.72984 | 9218 ft | 283 kts | 86° |
| 2026-05-05 18:42 | -15.86553 | -47.70923 | 9257 ft | 284 kts | 85° |
| 2026-05-05 18:42 | -15.86377 | -47.68876 | 9347 ft | 287 kts | 85° |
| 2026-05-05 18:42 | -15.86194 | -47.66812 | 9994 ft | 291 kts | 85° |
| 2026-05-05 18:43 | -15.86011 | -47.64702 | 10767 ft | 296 kts | 85° |
| 2026-05-05 18:43 | -15.85822 | -47.62499 | 10968 ft | 320 kts | 85° |
| 2026-05-05 18:43 | -15.85617 | -47.60109 | 11150 ft | 342 kts | 85° |
| 2026-05-05 18:43 | -15.85561 | -47.57564 | 11389 ft | 360 kts | 98° |
| 2026-05-05 18:44 | -15.86413 | -47.55128 | 11937 ft | 368 kts | 120° |
| 2026-05-05 18:44 | -15.88093 | -47.53091 | 12619 ft | 372 kts | 139° |
| 2026-05-05 18:44 | -15.90147 | -47.51462 | 13255 ft | 376 kts | 143° |
| 2026-05-05 18:44 | -15.92300 | -47.49859 | 13849 ft | 380 kts | 144° |
| 2026-05-05 18:45 | -15.94448 | -47.48260 | 14454 ft | 383 kts | 143° |
| 2026-05-05 18:45 | -15.96607 | -47.46620 | 15034 ft | 386 kts | 143° |
| 2026-05-05 18:45 | -15.98755 | -47.44963 | 15609 ft | 389 kts | 143° |
| 2026-05-05 18:45 | -16.00938 | -47.43226 | 16169 ft | 393 kts | 139° |
| 2026-05-05 18:46 | -16.02644 | -47.41022 | 16690 ft | 397 kts | 120° |
| 2026-05-05 18:46 | -16.03965 | -47.38517 | 17234 ft | 400 kts | 120° |
| 2026-05-05 18:46 | -16.05323 | -47.35950 | 17733 ft | 404 kts | 120° |
| 2026-05-05 18:46 | -16.06682 | -47.33402 | 18215 ft | 407 kts | 120° |
| 2026-05-05 18:47 | -16.08062 | -47.30836 | 18703 ft | 410 kts | 121° |
| 2026-05-05 18:47 | -16.09469 | -47.28232 | 19201 ft | 413 kts | 121° |
| 2026-05-05 18:47 | -16.10897 | -47.25598 | 19654 ft | 416 kts | 121° |
| 2026-05-05 18:47 | -16.12325 | -47.22966 | 20089 ft | 419 kts | 121° |
| 2026-05-05 18:48 | -16.13755 | -47.20331 | 20525 ft | 423 kts | 121° |
| 2026-05-05 18:48 | -16.15217 | -47.17638 | 20951 ft | 426 kts | 121° |
| 2026-05-05 18:48 | -16.16668 | -47.14962 | 21361 ft | 428 kts | 121° |
| 2026-05-05 18:48 | -16.18146 | -47.12236 | 21757 ft | 431 kts | 121° |
| 2026-05-05 18:49 | -16.19609 | -47.09537 | 22140 ft | 434 kts | 121° |
| 2026-05-05 18:49 | -16.21110 | -47.06766 | 22513 ft | 437 kts | 121° |
| 2026-05-05 18:49 | -16.22599 | -47.04015 | 22872 ft | 440 kts | 121° |
| 2026-05-05 18:49 | -16.24113 | -47.01217 | 23214 ft | 443 kts | 121° |
| 2026-05-05 18:50 | -16.25618 | -46.98436 | 23543 ft | 445 kts | 121° |
| 2026-05-05 18:50 | -16.27133 | -46.95633 | 23868 ft | 448 kts | 121° |
| 2026-05-05 18:50 | -16.28670 | -46.92789 | 24188 ft | 450 kts | 121° |
| 2026-05-05 18:50 | -16.30203 | -46.89953 | 24506 ft | 453 kts | 121° |
| 2026-05-05 18:51 | -16.31762 | -46.87065 | 24803 ft | 455 kts | 121° |
| 2026-05-05 18:51 | -16.33306 | -46.84203 | 25101 ft | 457 kts | 121° |
| 2026-05-05 18:51 | -16.34870 | -46.81297 | 25393 ft | 460 kts | 121° |
| 2026-05-05 18:51 | -16.36441 | -46.78377 | 25689 ft | 462 kts | 121° |
| 2026-05-05 18:52 | -16.38009 | -46.75460 | 25968 ft | 464 kts | 121° |
| 2026-05-05 18:52 | -16.39583 | -46.72530 | 26238 ft | 466 kts | 122° |
| 2026-05-05 18:52 | -16.41180 | -46.69556 | 26496 ft | 469 kts | 122° |
| 2026-05-05 18:52 | -16.42764 | -46.66606 | 26760 ft | 471 kts | 122° |
| 2026-05-05 18:53 | -16.44373 | -46.63609 | 27049 ft | 472 kts | 122° |
| 2026-05-05 18:53 | -16.45774 | -46.60491 | 27268 ft | 479 kts | 109° |
| 2026-05-05 18:53 | -16.46273 | -46.57077 | 27499 ft | 486 kts | 92° |
| 2026-05-05 18:53 | -16.46190 | -46.53526 | 27803 ft | 487 kts | 89° |
| 2026-05-05 18:54 | -16.46054 | -46.50010 | 28013 ft | 490 kts | 89° |
| 2026-05-05 18:54 | -16.45904 | -46.46428 | 28220 ft | 493 kts | 89° |
| 2026-05-05 18:54 | -16.45764 | -46.42886 | 28460 ft | 494 kts | 89° |
| 2026-05-05 18:54 | -16.45635 | -46.39277 | 28690 ft | 496 kts | 89° |
| 2026-05-05 18:55 | -16.45519 | -46.35707 | 28891 ft | 498 kts | 90° |
| 2026-05-05 18:55 | -16.45411 | -46.32104 | 29106 ft | 500 kts | 90° |
| 2026-05-05 18:55 | -16.45306 | -46.28452 | 29333 ft | 501 kts | 90° |
| 2026-05-05 18:55 | -16.45204 | -46.24838 | 29585 ft | 501 kts | 90° |
| 2026-05-05 18:56 | -16.45101 | -46.21202 | 29898 ft | 501 kts | 90° |
| 2026-05-05 18:56 | -16.44997 | -46.17568 | 30252 ft | 499 kts | 90° |
| 2026-05-05 18:56 | -16.44893 | -46.13985 | 30583 ft | 498 kts | 90° |
| 2026-05-05 18:56 | -16.44787 | -46.10351 | 30826 ft | 500 kts | 90° |
| 2026-05-05 18:57 | -16.44681 | -46.06747 | 31034 ft | 501 kts | 90° |
| 2026-05-05 18:57 | -16.44573 | -46.03126 | 31304 ft | 501 kts | 91° |
| 2026-05-05 18:57 | -16.44465 | -45.99508 | 31602 ft | 501 kts | 91° |
| 2026-05-05 18:57 | -16.44354 | -45.95849 | 31894 ft | 501 kts | 91° |
| 2026-05-05 18:58 | -16.44245 | -45.92246 | 32146 ft | 502 kts | 91° |
| 2026-05-05 18:58 | -16.44134 | -45.88597 | 32391 ft | 503 kts | 91° |
| 2026-05-05 18:58 | -16.44023 | -45.84980 | 32664 ft | 503 kts | 92° |
| 2026-05-05 18:58 | -16.43911 | -45.81317 | 32981 ft | 502 kts | 92° |
| 2026-05-05 18:59 | -16.43795 | -45.77699 | 33242 ft | 502 kts | 92° |
| 2026-05-05 18:59 | -16.43686 | -45.74092 | 33498 ft | 503 kts | 92° |
| 2026-05-05 18:59 | -16.43572 | -45.70423 | 33729 ft | 504 kts | 93° |
| 2026-05-05 18:59 | -16.43458 | -45.66799 | 33973 ft | 504 kts | 93° |
| 2026-05-05 19:00 | -16.43341 | -45.63136 | 34234 ft | 504 kts | 93° |
| 2026-05-05 19:00 | -16.43223 | -45.59510 | 34494 ft | 503 kts | 93° |
| 2026-05-05 19:00 | -16.43106 | -45.55835 | 34739 ft | 503 kts | 93° |
| 2026-05-05 19:00 | -16.42990 | -45.52216 | 34964 ft | 504 kts | 93° |
| 2026-05-05 19:01 | -16.42873 | -45.48549 | 35186 ft | 504 kts | 92° |
| 2026-05-05 19:01 | -16.42756 | -45.44932 | 35429 ft | 504 kts | 92° |
| 2026-05-05 19:01 | -16.42636 | -45.41268 | 35681 ft | 503 kts | 92° |
| 2026-05-05 19:01 | -16.42517 | -45.37655 | 35894 ft | 503 kts | 92° |
| 2026-05-05 19:02 | -16.42396 | -45.33993 | 36080 ft | 504 kts | 92° |
| 2026-05-05 19:02 | -16.42274 | -45.30322 | 36326 ft | 503 kts | 92° |
| 2026-05-05 19:02 | -16.42153 | -45.26702 | 36538 ft | 503 kts | 92° |
| 2026-05-05 19:02 | -16.42032 | -45.23089 | 36750 ft | 502 kts | 92° |
| 2026-05-05 19:03 | -16.41908 | -45.19421 | 37019 ft | 500 kts | 92° |
| 2026-05-05 19:03 | -16.41785 | -45.15830 | 37227 ft | 500 kts | 92° |
| 2026-05-05 19:03 | -16.41539 | -45.08590 | 37205 ft | 499 kts | 92° |
| 2026-05-05 19:04 | -16.41289 | -45.01415 | 37196 ft | 492 kts | 92° |
| 2026-05-05 19:04 | -16.41042 | -44.94309 | 37205 ft | 492 kts | 92° |
| 2026-05-05 19:05 | -16.40792 | -44.87161 | 37198 ft | 492 kts | 92° |
| 2026-05-05 19:05 | -16.40541 | -44.80046 | 37195 ft | 492 kts | 92° |
| 2026-05-05 19:06 | -16.40286 | -44.72948 | 37197 ft | 492 kts | 91° |
| 2026-05-05 19:06 | -16.40028 | -44.65812 | 37193 ft | 493 kts | 91° |
| 2026-05-05 19:07 | -16.39768 | -44.58692 | 37196 ft | 493 kts | 91° |
| 2026-05-05 19:07 | -16.39505 | -44.51552 | 37194 ft | 493 kts | 91° |
| 2026-05-05 19:08 | -16.39239 | -44.44402 | 37187 ft | 494 kts | 91° |
| 2026-05-05 19:08 | -16.38970 | -44.37255 | 37185 ft | 494 kts | 91° |
| 2026-05-05 19:09 | -16.38700 | -44.30112 | 37185 ft | 494 kts | 91° |
| 2026-05-05 19:09 | -16.38427 | -44.22969 | 37191 ft | 494 kts | 91° |
| 2026-05-05 19:10 | -16.38151 | -44.15812 | 37184 ft | 495 kts | 91° |
| 2026-05-05 19:10 | -16.37873 | -44.08663 | 37183 ft | 495 kts | 91° |
| 2026-05-05 19:11 | -16.37590 | -44.01467 | 37179 ft | 494 kts | 91° |
| 2026-05-05 19:11 | -16.37308 | -43.94332 | 37186 ft | 494 kts | 91° |
| 2026-05-05 19:12 | -16.37022 | -43.87181 | 37184 ft | 494 kts | 91° |
| 2026-05-05 19:12 | -16.36735 | -43.80038 | 37185 ft | 493 kts | 91° |
| 2026-05-05 19:13 | -16.36447 | -43.72940 | 37180 ft | 493 kts | 91° |
| 2026-05-05 19:13 | -16.36155 | -43.65808 | 37185 ft | 493 kts | 91° |
| 2026-05-05 19:14 | -16.35861 | -43.58670 | 37187 ft | 493 kts | 91° |
| 2026-05-05 19:14 | -16.35563 | -43.51519 | 37177 ft | 493 kts | 90° |
| 2026-05-05 19:15 | -16.35265 | -43.44400 | 37185 ft | 493 kts | 90° |
| 2026-05-05 19:15 | -16.34964 | -43.37280 | 37189 ft | 493 kts | 90° |
| 2026-05-05 19:16 | -16.34660 | -43.30150 | 37180 ft | 493 kts | 90° |
| 2026-05-05 19:16 | -16.34354 | -43.23035 | 37192 ft | 492 kts | 90° |
| 2026-05-05 19:17 | -16.34047 | -43.15931 | 37191 ft | 493 kts | 90° |
| 2026-05-05 19:17 | -16.33736 | -43.08811 | 37184 ft | 493 kts | 90° |
| 2026-05-05 19:18 | -16.33424 | -43.01699 | 37185 ft | 493 kts | 90° |
| 2026-05-05 19:18 | -16.33108 | -42.94566 | 37190 ft | 492 kts | 90° |
| 2026-05-05 19:19 | -16.32792 | -42.87464 | 37179 ft | 492 kts | 90° |
| 2026-05-05 19:19 | -16.32842 | -42.80372 | 37181 ft | 488 kts | 100° |
| 2026-05-05 19:20 | -16.33794 | -42.73376 | 37190 ft | 488 kts | 101° |
| 2026-05-05 19:20 | -16.34804 | -42.66391 | 37172 ft | 488 kts | 101° |
| 2026-05-05 19:21 | -16.35615 | -42.60539 | 37178 ft | 488 kts | 101° |
| 2026-05-05 19:21 | -16.36550 | -42.53553 | 37173 ft | 488 kts | 101° |
| 2026-05-05 19:22 | -16.37472 | -42.46549 | 37184 ft | 488 kts | 100° |
| 2026-05-05 19:22 | -16.38392 | -42.39549 | 37165 ft | 488 kts | 100° |
| 2026-05-05 19:23 | -16.39310 | -42.32546 | 37171 ft | 489 kts | 100° |
| 2026-05-05 19:23 | -16.40229 | -42.25539 | 37166 ft | 488 kts | 100° |
| 2026-05-05 19:24 | -16.41146 | -42.18526 | 37163 ft | 489 kts | 100° |
| 2026-05-05 19:24 | -16.42059 | -42.11519 | 37169 ft | 489 kts | 100° |
| 2026-05-05 19:25 | -16.42970 | -42.04512 | 37158 ft | 489 kts | 100° |
| 2026-05-05 19:25 | -16.43878 | -41.97511 | 37154 ft | 488 kts | 100° |
| 2026-05-05 19:26 | -16.44788 | -41.90473 | 37158 ft | 488 kts | 100° |
| 2026-05-05 19:26 | -16.45692 | -41.83467 | 37154 ft | 488 kts | 100° |
| 2026-05-05 19:27 | -16.46594 | -41.76454 | 37172 ft | 488 kts | 100° |
| 2026-05-05 19:27 | -16.47492 | -41.69455 | 37160 ft | 488 kts | 100° |
| 2026-05-05 19:28 | -16.48390 | -41.62440 | 37157 ft | 489 kts | 100° |
| 2026-05-05 19:28 | -16.49282 | -41.55452 | 37158 ft | 489 kts | 99° |
| 2026-05-05 19:29 | -16.50175 | -41.48436 | 37155 ft | 489 kts | 99° |
| 2026-05-05 19:29 | -16.51073 | -41.41362 | 37153 ft | 490 kts | 99° |
| 2026-05-05 19:30 | -16.51961 | -41.34340 | 37146 ft | 490 kts | 99° |
| 2026-05-05 19:30 | -16.52849 | -41.27310 | 37148 ft | 490 kts | 99° |
| 2026-05-05 19:31 | -16.53733 | -41.20281 | 37143 ft | 490 kts | 99° |
| 2026-05-05 19:31 | -16.54179 | -41.16734 | 37008 ft | 493 kts | 99° |
| 2026-05-05 19:31 | -16.54626 | -41.13181 | 36454 ft | 497 kts | 99° |
| 2026-05-05 19:32 | -16.55074 | -41.09598 | 35857 ft | 494 kts | 99° |
| 2026-05-05 19:32 | -16.55517 | -41.06058 | 35185 ft | 495 kts | 99° |
| 2026-05-05 19:32 | -16.55959 | -41.02518 | 34512 ft | 496 kts | 98° |
| 2026-05-05 19:32 | -16.56408 | -40.98922 | 33801 ft | 498 kts | 98° |
| 2026-05-05 19:33 | -16.56852 | -40.95355 | 33076 ft | 499 kts | 98° |
| 2026-05-05 19:33 | -16.57303 | -40.91733 | 32317 ft | 501 kts | 98° |
| 2026-05-05 19:33 | -16.57747 | -40.88155 | 31548 ft | 502 kts | 98° |
| 2026-05-05 19:33 | -16.58197 | -40.84528 | 30739 ft | 503 kts | 98° |
| 2026-05-05 19:34 | -16.58644 | -40.80922 | 29907 ft | 504 kts | 98° |
| 2026-05-05 19:34 | -16.59090 | -40.77313 | 29036 ft | 505 kts | 98° |
| 2026-05-05 19:34 | -16.59538 | -40.73683 | 28405 ft | 499 kts | 98° |
| 2026-05-05 19:35 | -16.60412 | -40.66580 | 27141 ft | 490 kts | 98° |
| 2026-05-05 19:35 | -16.60841 | -40.63088 | 26513 ft | 485 kts | 98° |
| 2026-05-05 19:35 | -16.61268 | -40.59608 | 25887 ft | 480 kts | 98° |
| 2026-05-05 19:35 | -16.61687 | -40.56196 | 25269 ft | 475 kts | 98° |
| 2026-05-05 19:36 | -16.62100 | -40.52823 | 24657 ft | 470 kts | 98° |
| 2026-05-05 19:36 | -16.62514 | -40.49431 | 24038 ft | 466 kts | 99° |
| 2026-05-05 19:36 | -16.62924 | -40.46072 | 23418 ft | 461 kts | 99° |
| 2026-05-05 19:36 | -16.63324 | -40.42791 | 22818 ft | 456 kts | 99° |
| 2026-05-05 19:37 | -16.63719 | -40.39550 | 22219 ft | 451 kts | 99° |
| 2026-05-05 19:37 | -16.64116 | -40.36290 | 21605 ft | 447 kts | 98° |
| 2026-05-05 19:37 | -16.64504 | -40.33097 | 21011 ft | 442 kts | 98° |
| 2026-05-05 19:37 | -16.64884 | -40.29966 | 20415 ft | 437 kts | 98° |
| 2026-05-05 19:38 | -16.65265 | -40.26819 | 19822 ft | 432 kts | 98° |
| 2026-05-05 19:38 | -16.65642 | -40.23707 | 19214 ft | 428 kts | 98° |
| 2026-05-05 19:38 | -16.66010 | -40.20657 | 18626 ft | 423 kts | 98° |
| 2026-05-05 19:38 | -16.66374 | -40.17645 | 18031 ft | 419 kts | 98° |
| 2026-05-05 19:39 | -16.66738 | -40.14627 | 17441 ft | 414 kts | 98° |
| 2026-05-05 19:39 | -16.67091 | -40.11694 | 16863 ft | 409 kts | 98° |
| 2026-05-05 19:39 | -16.67446 | -40.08744 | 16283 ft | 404 kts | 98° |
| 2026-05-05 19:39 | -16.67795 | -40.05839 | 15706 ft | 400 kts | 98° |
| 2026-05-05 19:40 | -16.68136 | -40.02993 | 15134 ft | 395 kts | 98° |
| 2026-05-05 19:40 | -16.68473 | -40.00184 | 14577 ft | 391 kts | 97° |
| 2026-05-05 19:40 | -16.68809 | -39.97376 | 14001 ft | 385 kts | 97° |
| 2026-05-05 19:40 | -16.69137 | -39.94639 | 13457 ft | 380 kts | 97° |
| 2026-05-05 19:41 | -16.69465 | -39.91895 | 12906 ft | 376 kts | 97° |
| 2026-05-05 19:41 | -16.69785 | -39.89212 | 12348 ft | 372 kts | 97° |
| 2026-05-05 19:41 | -16.70101 | -39.86565 | 11812 ft | 368 kts | 97° |
| 2026-05-05 19:41 | -16.70417 | -39.83906 | 11262 ft | 364 kts | 97° |
| 2026-05-05 19:42 | -16.70720 | -39.81356 | 11060 ft | 351 kts | 97° |
| 2026-05-05 19:42 | -16.71014 | -39.78880 | 10870 ft | 334 kts | 97° |
| 2026-05-05 19:42 | -16.71293 | -39.76532 | 10721 ft | 317 kts | 97° |
| 2026-05-05 19:42 | -16.71557 | -39.74309 | 10485 ft | 305 kts | 97° |
| 2026-05-05 19:43 | -16.71813 | -39.72151 | 10456 ft | 291 kts | 97° |
| 2026-05-05 19:43 | -16.72060 | -39.70060 | 10491 ft | 293 kts | 97° |
| 2026-05-05 19:43 | -16.72310 | -39.67944 | 10495 ft | 290 kts | 97° |
| 2026-05-05 19:43 | -16.72556 | -39.65865 | 10494 ft | 290 kts | 97° |
| 2026-05-05 19:44 | -16.72802 | -39.63774 | 10507 ft | 289 kts | 97° |
| 2026-05-05 19:44 | -16.73047 | -39.61697 | 10511 ft | 289 kts | 97° |
| 2026-05-05 19:44 | -16.73292 | -39.59627 | 10510 ft | 290 kts | 97° |
| 2026-05-05 19:44 | -16.73539 | -39.57526 | 10506 ft | 290 kts | 97° |
| 2026-05-05 19:45 | -16.73784 | -39.55445 | 10510 ft | 290 kts | 97° |
| 2026-05-05 19:45 | -16.74035 | -39.53373 | 10496 ft | 290 kts | 100° |
| 2026-05-05 19:45 | -16.74754 | -39.51409 | 10505 ft | 290 kts | 123° |
| 2026-05-05 19:45 | -16.76136 | -39.49908 | 10507 ft | 293 kts | 144° |
| 2026-05-05 19:46 | -16.78004 | -39.49022 | 10505 ft | 296 kts | 166° |
| 2026-05-05 19:46 | -16.80050 | -39.48953 | 10497 ft | 301 kts | 188° |
| 2026-05-05 19:46 | -16.81992 | -39.49753 | 10494 ft | 306 kts | 213° |
| 2026-05-05 19:46 | -16.83487 | -39.51360 | 10507 ft | 309 kts | 238° |
| 2026-05-05 19:47 | -16.84225 | -39.53445 | 10515 ft | 312 kts | 261° |
| 2026-05-05 19:47 | -16.84208 | -39.55697 | 10516 ft | 313 kts | 275° |
| 2026-05-05 19:47 | -16.83962 | -39.57966 | 10506 ft | 314 kts | 276° |
| 2026-05-05 19:47 | -16.83707 | -39.60225 | 10509 ft | 315 kts | 276° |
| 2026-05-05 19:48 | -16.83462 | -39.62504 | 10511 ft | 315 kts | 276° |
| 2026-05-05 19:48 | -16.83014 | -39.64722 | 10492 ft | 315 kts | 295° |
| 2026-05-05 19:48 | -16.81729 | -39.66547 | 10517 ft | 311 kts | 321° |
| 2026-05-05 19:48 | -16.79890 | -39.67620 | 10520 ft | 307 kts | 346° |
| 2026-05-05 19:49 | -16.77770 | -39.67837 | 10515 ft | 303 kts | 9° |
| 2026-05-05 19:49 | -16.76415 | -39.67485 | 10504 ft | 300 kts | 25° |
| 2026-05-05 19:49 | -16.74252 | -39.65765 | 10498 ft | 294 kts | 56° |
| 2026-05-05 19:49 | -16.73359 | -39.63891 | 10517 ft | 289 kts | 75° |
| 2026-05-05 19:50 | -16.73138 | -39.61802 | 10509 ft | 289 kts | 94° |
| 2026-05-05 19:50 | -16.73333 | -39.59726 | 10503 ft | 291 kts | 97° |
| 2026-05-05 19:50 | -16.73568 | -39.57612 | 10498 ft | 292 kts | 97° |
| 2026-05-05 19:50 | -16.73794 | -39.55519 | 10496 ft | 292 kts | 96° |
| 2026-05-05 19:51 | -16.74021 | -39.53403 | 10498 ft | 292 kts | 99° |
| 2026-05-05 19:51 | -16.74699 | -39.51428 | 10501 ft | 292 kts | 123° |
| 2026-05-05 19:51 | -16.76097 | -39.49899 | 10503 ft | 294 kts | 144° |
| 2026-05-05 19:51 | -16.77943 | -39.49015 | 10502 ft | 297 kts | 165° |
| 2026-05-05 19:52 | -16.80028 | -39.48922 | 10502 ft | 301 kts | 188° |
| 2026-05-05 19:52 | -16.81975 | -39.49698 | 10497 ft | 305 kts | 212° |
| 2026-05-05 19:52 | -16.83490 | -39.51276 | 10504 ft | 309 kts | 237° |
| 2026-05-05 19:52 | -16.84261 | -39.53350 | 10516 ft | 311 kts | 259° |
| 2026-05-05 19:53 | -16.84271 | -39.55586 | 10525 ft | 312 kts | 275° |
| 2026-05-05 19:53 | -16.84026 | -39.57854 | 10509 ft | 313 kts | 276° |
| 2026-05-05 19:53 | -16.83774 | -39.60100 | 10507 ft | 314 kts | 276° |
| 2026-05-05 19:53 | -16.83528 | -39.62389 | 10507 ft | 314 kts | 276° |
| 2026-05-05 19:54 | -16.83116 | -39.64624 | 10490 ft | 314 kts | 293° |
| 2026-05-05 19:54 | -16.81892 | -39.66474 | 10520 ft | 311 kts | 319° |
| 2026-05-05 19:54 | -16.80077 | -39.67613 | 10521 ft | 307 kts | 343° |
| 2026-05-05 19:54 | -16.77977 | -39.67905 | 10512 ft | 303 kts | 7° |
| 2026-05-05 19:55 | -16.75987 | -39.67322 | 10508 ft | 298 kts | 31° |
| 2026-05-05 19:55 | -16.74382 | -39.65971 | 10513 ft | 294 kts | 53° |
| 2026-05-05 19:55 | -16.73423 | -39.64127 | 10520 ft | 290 kts | 73° |
| 2026-05-05 19:55 | -16.73127 | -39.62065 | 10504 ft | 290 kts | 92° |
| 2026-05-05 19:56 | -16.73305 | -39.59978 | 10504 ft | 291 kts | 96° |
| 2026-05-05 19:56 | -16.73540 | -39.57861 | 10500 ft | 292 kts | 97° |
| 2026-05-05 19:56 | -16.73767 | -39.55768 | 10497 ft | 292 kts | 96° |
| 2026-05-05 19:56 | -16.73990 | -39.53652 | 10499 ft | 292 kts | 97° |
| 2026-05-05 19:57 | -16.74580 | -39.51663 | 10498 ft | 292 kts | 120° |
| 2026-05-05 19:57 | -16.75397 | -39.50537 | 10505 ft | 293 kts | 134° |
| 2026-05-05 19:57 | -16.77714 | -39.49081 | 10501 ft | 297 kts | 162° |
| 2026-05-05 19:57 | -16.79784 | -39.48886 | 10503 ft | 300 kts | 185° |
| 2026-05-05 19:58 | -16.81764 | -39.49563 | 10499 ft | 305 kts | 209° |
| 2026-05-05 19:58 | -16.83331 | -39.51036 | 10500 ft | 308 kts | 233° |
| 2026-05-05 19:58 | -16.84210 | -39.53095 | 10518 ft | 311 kts | 257° |
| 2026-05-05 19:58 | -16.84295 | -39.55326 | 10526 ft | 312 kts | 275° |
| 2026-05-05 19:59 | -16.84055 | -39.57598 | 10511 ft | 313 kts | 276° |
| 2026-05-05 19:59 | -16.83803 | -39.59833 | 10508 ft | 314 kts | 276° |
| 2026-05-05 19:59 | -16.83557 | -39.62113 | 10508 ft | 314 kts | 276° |
| 2026-05-05 19:59 | -16.83212 | -39.64343 | 10492 ft | 315 kts | 289° |
| 2026-05-05 20:00 | -16.82080 | -39.66281 | 10518 ft | 311 kts | 316° |
| 2026-05-05 20:00 | -16.80310 | -39.67523 | 10520 ft | 308 kts | 341° |
| 2026-05-05 20:00 | -16.78247 | -39.67919 | 10520 ft | 303 kts | 4° |
| 2026-05-05 20:00 | -16.76205 | -39.67433 | 10508 ft | 299 kts | 28° |
| 2026-05-05 20:01 | -16.74543 | -39.66163 | 10516 ft | 295 kts | 51° |
| 2026-05-05 20:01 | -16.73504 | -39.64362 | 10518 ft | 291 kts | 71° |
| 2026-05-05 20:01 | -16.73124 | -39.62295 | 10500 ft | 290 kts | 91° |
| 2026-05-05 20:01 | -16.73282 | -39.60218 | 10505 ft | 291 kts | 96° |
| 2026-05-05 20:02 | -16.73514 | -39.58106 | 10501 ft | 292 kts | 97° |
| 2026-05-05 20:02 | -16.73741 | -39.56017 | 10497 ft | 292 kts | 96° |
| 2026-05-05 20:02 | -16.73964 | -39.53896 | 10499 ft | 292 kts | 96° |
| 2026-05-05 20:02 | -16.74468 | -39.51866 | 10492 ft | 292 kts | 117° |
| 2026-05-05 20:03 | -16.75714 | -39.50218 | 10502 ft | 293 kts | 139° |
| 2026-05-05 20:03 | -16.77497 | -39.49153 | 10502 ft | 296 kts | 160° |
| 2026-05-05 20:03 | -16.79516 | -39.48863 | 10503 ft | 300 kts | 182° |
| 2026-05-05 20:03 | -16.81543 | -39.49439 | 10499 ft | 304 kts | 206° |
| 2026-05-05 20:04 | -16.82702 | -39.50291 | 10496 ft | 307 kts | 223° |
| 2026-05-05 20:04 | -16.84140 | -39.52808 | 10519 ft | 310 kts | 254° |
| 2026-05-05 20:04 | -16.84317 | -39.55063 | 10520 ft | 312 kts | 274° |
| 2026-05-05 20:04 | -16.84088 | -39.57307 | 10514 ft | 313 kts | 276° |
| 2026-05-05 20:05 | -16.83917 | -39.58811 | 10508 ft | 314 kts | 276° |
| 2026-05-05 20:05 | -16.83587 | -39.61826 | 10507 ft | 314 kts | 276° |
| 2026-05-05 20:05 | -16.83423 | -39.63338 | 10504 ft | 315 kts | 278° |
| 2026-05-05 20:05 | -16.82269 | -39.66073 | 10514 ft | 312 kts | 313° |
| 2026-05-05 20:06 | -16.81181 | -39.67055 | 10517 ft | 310 kts | 330° |
| 2026-05-05 20:06 | -16.79193 | -39.67850 | 10526 ft | 305 kts | 354° |
| 2026-05-05 20:06 | -16.77091 | -39.67758 | 10509 ft | 301 kts | 17° |
| 2026-05-05 20:06 | -16.75244 | -39.66833 | 10516 ft | 296 kts | 40° |
| 2026-05-05 20:07 | -16.73889 | -39.65226 | 10491 ft | 292 kts | 63° |
| 2026-05-05 20:07 | -16.73206 | -39.63273 | 10503 ft | 290 kts | 81° |
| 2026-05-05 20:07 | -16.73188 | -39.61159 | 10514 ft | 290 kts | 96° |
| 2026-05-05 20:07 | -16.73406 | -39.59083 | 10502 ft | 291 kts | 97° |
| 2026-05-05 20:08 | -16.73640 | -39.56968 | 10497 ft | 292 kts | 96° |
| 2026-05-05 20:08 | -16.73860 | -39.54898 | 10495 ft | 292 kts | 96° |
| 2026-05-05 20:08 | -16.74134 | -39.52786 | 10490 ft | 292 kts | 105° |
| 2026-05-05 20:08 | -16.75048 | -39.50929 | 10507 ft | 292 kts | 129° |
| 2026-05-05 20:09 | -16.76613 | -39.49564 | 10502 ft | 295 kts | 150° |
| 2026-05-05 20:09 | -16.78541 | -39.48901 | 10503 ft | 298 kts | 172° |
| 2026-05-05 20:09 | -16.80619 | -39.49061 | 10502 ft | 302 kts | 195° |
| 2026-05-05 20:09 | -16.82471 | -39.50081 | 10498 ft | 306 kts | 219° |
| 2026-05-05 20:10 | -16.83789 | -39.51840 | 10512 ft | 309 kts | 244° |
| 2026-05-05 20:10 | -16.84337 | -39.53989 | 10512 ft | 312 kts | 267° |
| 2026-05-05 20:10 | -16.84202 | -39.56265 | 10523 ft | 312 kts | 276° |
| 2026-05-05 20:10 | -16.83952 | -39.58500 | 10509 ft | 314 kts | 276° |
| 2026-05-05 20:11 | -16.83698 | -39.60779 | 10509 ft | 314 kts | 276° |
| 2026-05-05 20:11 | -16.83459 | -39.63027 | 10506 ft | 315 kts | 277° |
| 2026-05-05 20:11 | -16.82844 | -39.65216 | 10501 ft | 314 kts | 301° |
| 2026-05-05 20:11 | -16.81419 | -39.66881 | 10517 ft | 310 kts | 326° |
| 2026-05-05 20:12 | -16.79472 | -39.67793 | 10521 ft | 306 kts | 351° |
| 2026-05-05 20:12 | -16.77359 | -39.67820 | 10512 ft | 302 kts | 14° |
| 2026-05-05 20:12 | -16.75461 | -39.66996 | 10513 ft | 297 kts | 37° |
| 2026-05-05 20:12 | -16.74037 | -39.65479 | 10494 ft | 293 kts | 60° |
| 2026-05-05 20:13 | -16.73257 | -39.63524 | 10505 ft | 290 kts | 79° |
| 2026-05-05 20:13 | -16.73164 | -39.61441 | 10514 ft | 289 kts | 95° |
| 2026-05-05 20:13 | -16.73379 | -39.59335 | 10504 ft | 291 kts | 97° |
| 2026-05-05 20:13 | -16.73604 | -39.57301 | 10498 ft | 292 kts | 96° |
| 2026-05-05 20:14 | -16.73830 | -39.55180 | 10496 ft | 292 kts | 96° |
| 2026-05-05 20:14 | -16.74070 | -39.53094 | 10495 ft | 292 kts | 102° |
| 2026-05-05 20:14 | -16.74868 | -39.51172 | 10506 ft | 292 kts | 126° |
| 2026-05-05 20:14 | -16.76358 | -39.49719 | 10502 ft | 294 kts | 147° |
| 2026-05-05 20:15 | -16.78251 | -39.48947 | 10502 ft | 297 kts | 168° |
| 2026-05-05 20:15 | -16.80334 | -39.48985 | 10502 ft | 302 kts | 192° |
| 2026-05-05 20:15 | -16.82237 | -39.49888 | 10499 ft | 306 kts | 216° |
| 2026-05-05 20:15 | -16.83651 | -39.51559 | 10511 ft | 309 kts | 240° |
| 2026-05-05 20:16 | -16.84310 | -39.53680 | 10519 ft | 311 kts | 263° |
| 2026-05-05 20:16 | -16.84238 | -39.55925 | 10527 ft | 312 kts | 276° |
| 2026-05-05 20:16 | -16.83987 | -39.58194 | 10510 ft | 314 kts | 276° |
| 2026-05-05 20:16 | -16.83733 | -39.60466 | 10509 ft | 314 kts | 276° |
| 2026-05-05 20:17 | -16.83491 | -39.62742 | 10506 ft | 315 kts | 276° |
| 2026-05-05 20:17 | -16.82979 | -39.64943 | 10497 ft | 314 kts | 297° |
| 2026-05-05 20:17 | -16.81634 | -39.66708 | 10516 ft | 311 kts | 323° |
| 2026-05-05 20:17 | -16.79750 | -39.67722 | 10520 ft | 306 kts | 347° |
| 2026-05-05 20:18 | -16.77648 | -39.67870 | 10515 ft | 302 kts | 11° |
| 2026-05-05 20:18 | -16.75707 | -39.67159 | 10511 ft | 298 kts | 34° |
| 2026-05-05 20:18 | -16.74188 | -39.65709 | 10505 ft | 294 kts | 57° |
| 2026-05-05 20:18 | -16.73328 | -39.63813 | 10511 ft | 291 kts | 76° |
| 2026-05-05 20:19 | -16.73143 | -39.61716 | 10512 ft | 290 kts | 94° |
| 2026-05-05 20:19 | -16.73344 | -39.59625 | 10503 ft | 291 kts | 97° |
| 2026-05-05 20:19 | -16.73579 | -39.57516 | 10498 ft | 292 kts | 97° |
| 2026-05-05 20:19 | -16.73804 | -39.55428 | 10495 ft | 292 kts | 96° |
| 2026-05-05 20:20 | -16.74032 | -39.53335 | 10497 ft | 292 kts | 99° |
| 2026-05-05 20:20 | -16.74754 | -39.51360 | 10503 ft | 292 kts | 123° |
| 2026-05-05 20:20 | -16.76159 | -39.49864 | 10502 ft | 294 kts | 144° |
| 2026-05-05 20:20 | -16.78033 | -39.48996 | 10503 ft | 297 kts | 166° |
| 2026-05-05 20:21 | -16.80093 | -39.48935 | 10501 ft | 301 kts | 189° |
| 2026-05-05 20:21 | -16.82047 | -39.49750 | 10503 ft | 305 kts | 213° |
| 2026-05-05 20:21 | -16.83515 | -39.51321 | 10508 ft | 309 kts | 237° |
| 2026-05-05 20:21 | -16.84273 | -39.53423 | 10518 ft | 311 kts | 260° |
| 2026-05-05 20:22 | -16.84263 | -39.55676 | 10527 ft | 312 kts | 276° |
| 2026-05-05 20:22 | -16.84019 | -39.57917 | 10511 ft | 314 kts | 276° |
| 2026-05-05 20:22 | -16.83763 | -39.60196 | 10511 ft | 314 kts | 276° |
| 2026-05-05 20:22 | -16.83523 | -39.62435 | 10507 ft | 315 kts | 276° |
| 2026-05-05 20:23 | -16.83093 | -39.64679 | 10494 ft | 315 kts | 294° |
| 2026-05-05 20:23 | -16.81853 | -39.66512 | 10515 ft | 311 kts | 320° |
| 2026-05-05 20:23 | -16.79991 | -39.67647 | 10517 ft | 307 kts | 345° |
| 2026-05-05 20:23 | -16.77906 | -39.67901 | 10517 ft | 303 kts | 8° |
| 2026-05-05 20:24 | -16.75923 | -39.67288 | 10509 ft | 298 kts | 31° |
| 2026-05-05 20:24 | -16.74358 | -39.65938 | 10516 ft | 294 kts | 54° |
| 2026-05-05 20:24 | -16.73401 | -39.64061 | 10514 ft | 291 kts | 73° |
| 2026-05-05 20:24 | -16.73129 | -39.61978 | 10508 ft | 290 kts | 93° |
| 2026-05-05 20:25 | -16.73312 | -39.59898 | 10503 ft | 291 kts | 97° |
| 2026-05-05 20:25 | -16.73548 | -39.57784 | 10495 ft | 292 kts | 97° |
| 2026-05-05 20:25 | -16.73776 | -39.55691 | 10494 ft | 292 kts | 96° |
| 2026-05-05 20:25 | -16.74000 | -39.53574 | 10496 ft | 292 kts | 98° |
| 2026-05-05 20:26 | -16.74613 | -39.51588 | 10499 ft | 292 kts | 121° |
| 2026-05-05 20:26 | -16.75969 | -39.50004 | 10502 ft | 293 kts | 142° |
| 2026-05-05 20:26 | -16.77778 | -39.49064 | 10504 ft | 296 kts | 163° |
| 2026-05-05 20:26 | -16.79841 | -39.48897 | 10500 ft | 300 kts | 186° |
| 2026-05-05 20:27 | -16.81824 | -39.49603 | 10508 ft | 304 kts | 210° |
| 2026-05-05 20:27 | -16.83367 | -39.51088 | 10501 ft | 309 kts | 234° |
| 2026-05-05 20:27 | -16.84221 | -39.53145 | 10517 ft | 311 kts | 257° |
| 2026-05-05 20:27 | -16.84292 | -39.55379 | 10526 ft | 312 kts | 275° |
| 2026-05-05 20:28 | -16.84052 | -39.57646 | 10513 ft | 313 kts | 276° |
| 2026-05-05 20:28 | -16.83797 | -39.59894 | 10509 ft | 314 kts | 276° |
| 2026-05-05 20:28 | -16.83550 | -39.62182 | 10508 ft | 315 kts | 276° |
| 2026-05-05 20:28 | -16.83186 | -39.64440 | 10493 ft | 315 kts | 290° |
| 2026-05-05 20:29 | -16.82045 | -39.66327 | 10518 ft | 312 kts | 317° |
| 2026-05-05 20:29 | -16.80247 | -39.67551 | 10519 ft | 308 kts | 342° |
| 2026-05-05 20:29 | -16.78176 | -39.67916 | 10519 ft | 303 kts | 5° |
| 2026-05-05 20:29 | -16.76145 | -39.67403 | 10510 ft | 299 kts | 28° |
| 2026-05-05 20:30 | -16.74516 | -39.66133 | 10507 ft | 295 kts | 51° |
| 2026-05-05 20:30 | -16.73482 | -39.64300 | 10512 ft | 291 kts | 72° |
| 2026-05-05 20:30 | -16.73124 | -39.62252 | 10503 ft | 290 kts | 91° |
| 2026-05-05 20:30 | -16.73286 | -39.60144 | 10505 ft | 291 kts | 96° |
| 2026-05-05 20:31 | -16.73517 | -39.58059 | 10495 ft | 292 kts | 97° |
| 2026-05-05 20:31 | -16.73747 | -39.55950 | 10494 ft | 292 kts | 96° |
| 2026-05-05 20:31 | -16.73969 | -39.53845 | 10497 ft | 292 kts | 97° |
| 2026-05-05 20:31 | -16.74492 | -39.51809 | 10493 ft | 292 kts | 118° |
| 2026-05-05 20:32 | -16.75772 | -39.50167 | 10502 ft | 293 kts | 140° |
| 2026-05-05 20:32 | -16.77532 | -39.49144 | 10503 ft | 296 kts | 161° |
| 2026-05-05 20:32 | -16.79588 | -39.48871 | 10499 ft | 300 kts | 183° |
| 2026-05-05 20:32 | -16.81582 | -39.49462 | 10509 ft | 304 kts | 206° |
| 2026-05-05 20:33 | -16.83225 | -39.50887 | 10500 ft | 308 kts | 231° |
| 2026-05-05 20:33 | -16.84160 | -39.52881 | 10517 ft | 311 kts | 255° |
| 2026-05-05 20:33 | -16.84311 | -39.55132 | 10527 ft | 312 kts | 275° |
| 2026-05-05 20:33 | -16.84080 | -39.57367 | 10515 ft | 313 kts | 276° |
| 2026-05-05 20:34 | -16.83822 | -39.59652 | 10508 ft | 314 kts | 276° |
| 2026-05-05 20:34 | -16.83579 | -39.61901 | 10508 ft | 315 kts | 276° |
| 2026-05-05 20:34 | -16.83267 | -39.64163 | 10495 ft | 315 kts | 287° |
| 2026-05-05 20:34 | -16.82226 | -39.66126 | 10514 ft | 312 kts | 314° |
| 2026-05-05 20:35 | -16.80490 | -39.67445 | 10518 ft | 308 kts | 339° |
| 2026-05-05 20:35 | -16.78433 | -39.67918 | 10523 ft | 304 kts | 2° |
| 2026-05-05 20:35 | -16.76365 | -39.67505 | 10508 ft | 300 kts | 26° |
| 2026-05-05 20:35 | -16.74663 | -39.66296 | 10514 ft | 295 kts | 49° |
| 2026-05-05 20:36 | -16.73576 | -39.64537 | 10590 ft | 285 kts | 70° |
| 2026-05-05 20:36 | -16.72944 | -39.62736 | 11296 ft | 248 kts | 62° |
| 2026-05-05 20:36 | -16.71908 | -39.61355 | 11349 ft | 238 kts | 50° |
| 2026-05-05 20:36 | -16.70780 | -39.60051 | 10721 ft | 253 kts | 50° |
| 2026-05-05 20:37 | -16.69563 | -39.58612 | 9965 ft | 272 kts | 51° |
| 2026-05-05 20:37 | -16.68728 | -39.57606 | 9647 ft | 276 kts | 51° |
| 2026-05-05 20:37 | -16.67064 | -39.55571 | 9213 ft | 277 kts | 52° |
| 2026-05-05 20:37 | -16.65826 | -39.54035 | 8920 ft | 275 kts | 52° |
| 2026-05-05 20:38 | -16.64595 | -39.52494 | 8627 ft | 274 kts | 52° |
| 2026-05-05 20:38 | -16.63394 | -39.50984 | 8345 ft | 273 kts | 52° |
| 2026-05-05 20:38 | -16.62178 | -39.49449 | 8042 ft | 272 kts | 52° |
| 2026-05-05 20:38 | -16.60985 | -39.47940 | 7755 ft | 271 kts | 52° |
| 2026-05-05 20:39 | -16.59788 | -39.46425 | 7466 ft | 270 kts | 52° |
| 2026-05-05 20:39 | -16.58587 | -39.44903 | 7178 ft | 269 kts | 52° |
| 2026-05-05 20:39 | -16.57406 | -39.43409 | 6904 ft | 268 kts | 52° |
| 2026-05-05 20:39 | -16.56218 | -39.41902 | 6618 ft | 267 kts | 52° |
| 2026-05-05 20:40 | -16.55051 | -39.40421 | 6309 ft | 266 kts | 52° |
| 2026-05-05 20:40 | -16.53867 | -39.38923 | 6032 ft | 265 kts | 52° |
| 2026-05-05 20:40 | -16.52691 | -39.37436 | 5756 ft | 264 kts | 52° |
| 2026-05-05 20:40 | -16.51548 | -39.35967 | 5476 ft | 263 kts | 56° |
| 2026-05-05 20:41 | -16.50823 | -39.34249 | 5166 ft | 259 kts | 77° |
| 2026-05-05 20:41 | -16.50375 | -39.32444 | 4980 ft | 254 kts | 77° |
| 2026-05-05 20:41 | -16.49919 | -39.30685 | 4910 ft | 245 kts | 76° |
| 2026-05-05 20:41 | -16.49475 | -39.29009 | 4791 ft | 238 kts | 76° |
| 2026-05-05 20:42 | -16.49036 | -39.27373 | 4744 ft | 228 kts | 76° |
| 2026-05-05 20:42 | -16.48622 | -39.25837 | 4668 ft | 214 kts | 76° |
| 2026-05-05 20:42 | -16.48241 | -39.24408 | 4578 ft | 201 kts | 76° |
| 2026-05-05 20:42 | -16.47879 | -39.23067 | 4467 ft | 182 kts | 76° |
| 2026-05-05 20:43 | -16.47556 | -39.21862 | 4287 ft | 168 kts | 77° |
| 2026-05-05 20:43 | -16.47254 | -39.20743 | 4092 ft | 153 kts | 77° |
| 2026-05-05 20:43 | -16.46976 | -39.19709 | 3778 ft | 144 kts | 78° |
| 2026-05-05 20:43 | -16.46709 | -39.18716 | 3333 ft | 142 kts | 78° |
| 2026-05-05 20:44 | -16.46443 | -39.17726 | 2896 ft | 142 kts | 78° |
| 2026-05-05 20:44 | -16.46179 | -39.16741 | 2446 ft | 142 kts | 77° |
| 2026-05-05 20:44 | -16.45911 | -39.15743 | 1979 ft | 142 kts | 77° |
| 2026-05-05 20:44 | -16.45646 | -39.14758 | 1523 ft | 143 kts | 77° |
| 2026-05-05 20:45 | -16.45117 | -39.12790 | 989 ft | 141 kts | 76° |
| 2026-05-05 20:45 | -16.44854 | -39.11814 | 792 ft | 142 kts | 76° |
| 2026-05-05 20:45 | -16.44587 | -39.10828 | 620 ft | 140 kts | 77° |
| 2026-05-05 20:46 | -16.44332 | -39.09828 | 358 ft | 142 kts | 76° |
| 2026-05-05 20:46 | -16.44065 | -39.08875 | 195 ft | 130 kts | 75° |
| 2026-05-05 20:46 | -16.43851 | -39.08097 | 170 ft | 86 kts | 74° |
| 2026-05-05 20:46 | -16.43747 | -39.07709 | 169 ft | 25 kts | 75° |
| 2026-05-05 20:47 | -16.43704 | -39.07546 | 168 ft | 23 kts | 75° |
| 2026-05-05 20:47 | -16.43676 | -39.07441 | 167 ft | 22 kts | 73° |
| 2026-05-05 20:47 | -16.43651 | -39.07240 | 163 ft | 14 kts | 86° |
| 2026-05-05 20:47 | -16.43615 | -39.07231 | 162 ft | 6 kts | 270° |
| 2026-05-05 20:48 | -16.43628 | -39.07276 | 163 ft | 6 kts | 252° |
| 2026-05-05 20:48 | -16.43637 | -39.07306 | 164 ft | 6 kts | 252° |
| 2026-05-05 20:48 | -16.43655 | -39.07363 | 166 ft | 6 kts | 252° |
| 2026-05-05 20:48 | -16.43664 | -39.07392 | 166 ft | 6 kts | 252° |
| 2026-05-05 20:49 | -16.43677 | -39.07433 | 167 ft | 6 kts | 252° |
| 2026-05-05 20:49 | -16.43689 | -39.07475 | 167 ft | 6 kts | 252° |
| 2026-05-05 20:49 | -16.43702 | -39.07515 | 167 ft | 6 kts | 252° |
| 2026-05-05 20:49 | -16.43714 | -39.07555 | 168 ft | 6 kts | 252° |
| 2026-05-05 20:50 | -16.43726 | -39.07595 | 168 ft | 6 kts | 252° |
| 2026-05-05 20:50 | -16.43738 | -39.07633 | 168 ft | 6 kts | 252° |
| 2026-05-05 20:50 | -16.43750 | -39.07671 | 169 ft | 5 kts | 252° |
| 2026-05-05 20:50 | -16.43752 | -39.07708 | 169 ft | 5 kts | 300° |
| 2026-05-05 20:51 | -16.43737 | -39.07707 | 169 ft | 2 kts | 74° |
| 2026-05-05 20:51 | -16.43746 | -39.07692 | 169 ft | 3 kts | 121° |
| 2026-05-05 20:51 | -16.43785 | -39.07659 | 168 ft | 13 kts | 152° |
| 2026-05-05 20:51 | -16.43854 | -39.07627 | 167 ft | 7 kts | 149° |
| 2026-05-05 20:52 | -16.43874 | -39.07616 | 166 ft | 0 kts | 155° |